createdAt,value
2022-10-14T00:01:22.310Z,11.54
2022-10-14T00:04:02.677Z,11.49
2022-10-14T00:06:33.623Z,11.46
2022-10-14T00:09:06.171Z,11.45
2022-10-14T00:11:39.036Z,11.46
2022-10-14T00:14:12.033Z,11.48
2022-10-14T00:16:44.027Z,11.52
2022-10-14T00:19:14.838Z,11.56
2022-10-14T00:21:45.408Z,11.59
2022-10-14T00:24:16.306Z,11.60
2022-10-14T00:26:44.930Z,11.60
2022-10-14T00:29:20.680Z,11.59
2022-10-14T00:31:49.387Z,11.62
2022-10-14T00:34:17.830Z,11.65
2022-10-14T00:36:46.424Z,11.68
2022-10-14T00:39:17.278Z,11.66
2022-10-14T00:41:45.678Z,11.64
2022-10-14T00:44:13.767Z,11.62
2022-10-14T00:46:44.792Z,11.59
2022-10-14T00:49:27.140Z,11.57
2022-10-14T00:51:57.101Z,11.58
2022-10-14T00:54:31.670Z,11.59
2022-10-14T00:57:00.278Z,11.59
2022-10-14T00:59:28.729Z,11.56
2022-10-14T01:01:56.867Z,11.54
2022-10-14T01:04:26.793Z,11.53
2022-10-14T01:07:11.596Z,11.51
2022-10-14T01:09:59.105Z,11.50
2022-10-14T01:13:04.224Z,11.51
2022-10-14T01:15:34.629Z,11.51
2022-10-14T01:18:15.619Z,11.51
2022-10-14T01:21:08.662Z,11.52
2022-10-14T01:23:52.094Z,11.50
2022-10-14T01:26:51.535Z,11.45
2022-10-14T01:29:44.209Z,11.44
2022-10-14T01:32:23.386Z,11.44
2022-10-14T01:35:04.714Z,11.46
2022-10-14T01:37:36.371Z,11.50
2022-10-14T01:40:18.275Z,11.53
2022-10-14T01:42:48.397Z,11.55
2022-10-14T01:45:21.070Z,11.51
2022-10-14T01:47:51.706Z,11.43
2022-10-14T01:50:24.044Z,11.39
2022-10-14T01:53:21.735Z,11.38
2022-10-14T01:55:54.731Z,11.39
2022-10-14T01:58:26.524Z,11.43
2022-10-14T02:00:57.973Z,11.41
2022-10-14T02:03:26.298Z,11.44
2022-10-14T02:06:03.730Z,11.45
2022-10-14T02:08:51.480Z,11.47
2022-10-14T02:11:21.956Z,11.48
2022-10-14T02:14:09.335Z,11.51
2022-10-14T02:17:00.845Z,11.54
2022-10-14T02:19:53.089Z,11.57
2022-10-14T02:22:45.475Z,11.54
2022-10-14T02:25:20.069Z,11.53
2022-10-14T02:27:50.653Z,11.52
2022-10-14T02:30:21.371Z,11.51
2022-10-14T02:32:54.402Z,11.54
2022-10-14T02:35:24.491Z,11.49
2022-10-14T02:37:55.876Z,11.54
2022-10-14T02:40:33.811Z,11.53
2022-10-14T02:43:02.271Z,11.53
2022-10-14T02:45:31.234Z,11.54
2022-10-14T02:48:01.826Z,11.54
2022-10-14T02:50:32.560Z,11.53
2022-10-14T02:53:00.871Z,11.49
2022-10-14T02:55:29.272Z,11.49
2022-10-14T02:57:57.501Z,11.48
2022-10-14T03:00:27.433Z,11.48
2022-10-14T03:02:56.715Z,11.46
2022-10-14T03:05:25.509Z,11.45
2022-10-14T03:07:54.733Z,11.43
2022-10-14T03:10:23.141Z,11.42
2022-10-14T03:12:52.633Z,11.40
2022-10-14T03:15:30.929Z,11.37
2022-10-14T03:18:00.511Z,11.36
2022-10-14T03:20:37.505Z,11.36
2022-10-14T03:23:06.715Z,11.35
2022-10-14T03:25:36.422Z,11.32
2022-10-14T03:28:08.922Z,11.36
2022-10-14T03:30:46.141Z,11.36
2022-10-14T03:33:20.555Z,11.35
2022-10-14T03:36:15.138Z,11.33
2022-10-14T03:38:48.550Z,11.27
2022-10-14T03:41:24.812Z,11.29
2022-10-14T03:43:56.368Z,11.27
2022-10-14T03:46:25.100Z,11.28
2022-10-14T03:48:54.285Z,11.29
2022-10-14T03:51:22.806Z,11.27
2022-10-14T03:53:51.889Z,11.23
2022-10-14T03:56:26.237Z,11.20
2022-10-14T03:58:58.045Z,11.17
2022-10-14T04:01:27.132Z,11.15
2022-10-14T04:04:09.337Z,11.12
2022-10-14T04:06:37.942Z,11.09
2022-10-14T04:09:07.322Z,11.06
2022-10-14T04:11:38.961Z,11.04
2022-10-14T04:14:10.204Z,11.00
2022-10-14T04:16:49.523Z,10.97
2022-10-14T04:19:19.250Z,10.96
2022-10-14T04:21:47.740Z,10.98
2022-10-14T04:24:17.071Z,10.99
2022-10-14T04:26:52.870Z,11.02
2022-10-14T04:29:30.008Z,11.04
2022-10-14T04:32:03.613Z,11.04
2022-10-14T04:34:31.930Z,11.05
2022-10-14T04:37:00.306Z,11.05
2022-10-14T04:40:04.972Z,11.06
2022-10-14T04:42:33.696Z,11.06
2022-10-14T04:45:05.446Z,11.06
2022-10-14T04:47:56.986Z,11.06
2022-10-14T04:50:25.528Z,11.07
2022-10-14T04:53:26.116Z,11.09
2022-10-14T04:56:02.418Z,11.11
2022-10-14T04:58:32.980Z,11.12
2022-10-14T05:01:03.594Z,11.10
2022-10-14T05:03:38.065Z,11.17
2022-10-14T05:06:06.876Z,11.17
2022-10-14T05:08:34.970Z,11.19
2022-10-14T05:11:03.935Z,11.20
2022-10-14T05:13:37.810Z,11.22
2022-10-14T05:16:09.130Z,11.24
2022-10-14T05:18:37.610Z,11.25
2022-10-14T05:21:14.433Z,11.29
2022-10-14T05:24:07.898Z,11.32
2022-10-14T05:26:39.511Z,11.32
2022-10-14T05:29:12.317Z,11.33
2022-10-14T05:31:43.383Z,11.34
2022-10-14T05:34:39.601Z,11.36
2022-10-14T05:37:11.306Z,11.38
2022-10-14T05:40:04.560Z,11.39
2022-10-14T05:42:46.972Z,11.39
2022-10-14T05:45:18.192Z,11.40
2022-10-14T05:47:51.024Z,11.40
2022-10-14T05:50:22.675Z,11.43
2022-10-14T05:53:10.177Z,11.44
2022-10-14T05:55:47.741Z,11.44
2022-10-14T05:58:22.170Z,11.46
2022-10-14T06:01:04.456Z,11.47
2022-10-14T06:03:34.587Z,11.48
2022-10-14T06:06:04.870Z,11.49
2022-10-14T06:08:36.595Z,11.54
2022-10-14T06:11:06.347Z,11.57
2022-10-14T06:13:36.091Z,11.59
2022-10-14T06:16:07.415Z,11.61
2022-10-14T06:18:37.433Z,11.63
2022-10-14T06:21:07.478Z,11.67
2022-10-14T06:23:36.255Z,11.74
2022-10-14T06:26:06.418Z,11.78
2022-10-14T06:28:36.576Z,11.82
2022-10-14T06:31:05.695Z,11.87
2022-10-14T06:33:34.320Z,11.92
2022-10-14T06:36:04.414Z,11.98
2022-10-14T06:38:35.646Z,12.03
2022-10-14T06:41:05.017Z,12.07
2022-10-14T06:43:35.571Z,12.12
2022-10-14T06:46:05.689Z,12.15
2022-10-14T06:48:34.369Z,12.19
2022-10-14T06:51:02.983Z,12.23
2022-10-14T06:53:36.640Z,12.26
2022-10-14T06:56:07.495Z,12.31
2022-10-14T06:58:35.797Z,12.38
2022-10-14T07:01:05.987Z,12.48
2022-10-14T07:03:36.819Z,12.58
2022-10-14T07:06:07.036Z,12.68
2022-10-14T07:08:36.968Z,12.84
2022-10-14T07:11:06.934Z,13.02
2022-10-14T07:13:36.074Z,13.20
2022-10-14T07:16:05.033Z,13.37
2022-10-14T07:18:33.471Z,13.53
2022-10-14T07:21:06.137Z,13.63
2022-10-14T07:23:34.615Z,13.72
2022-10-14T07:26:04.090Z,13.80
2022-10-14T07:28:34.328Z,13.88
2022-10-14T07:31:10.994Z,13.99
2022-10-14T07:33:40.532Z,14.14
2022-10-14T07:36:14.242Z,14.28
2022-10-14T07:38:45.997Z,14.41
2022-10-14T07:41:20.981Z,14.57
2022-10-14T07:43:54.698Z,14.74
2022-10-14T07:46:29.846Z,14.93
2022-10-14T07:49:00.535Z,15.08
2022-10-14T07:51:29.619Z,15.23
2022-10-14T07:54:00.233Z,15.34
2022-10-14T07:56:28.990Z,15.48
2022-10-14T07:58:58.941Z,15.58
2022-10-14T08:01:27.646Z,15.67
2022-10-14T08:03:56.176Z,15.70
2022-10-14T08:06:24.743Z,15.74
2022-10-14T08:08:54.494Z,15.76
2022-10-14T08:11:25.686Z,15.78
2022-10-14T08:13:55.406Z,15.78
2022-10-14T08:16:28.281Z,15.81
2022-10-14T08:19:00.523Z,15.83
2022-10-14T08:21:30.528Z,15.85
2022-10-14T08:24:00.255Z,15.88
2022-10-14T08:26:33.463Z,15.93
2022-10-14T08:29:15.325Z,15.99
2022-10-14T08:31:44.613Z,16.05
2022-10-14T08:34:13.074Z,16.11
2022-10-14T08:36:41.805Z,16.18
2022-10-14T08:41:57.562Z,16.32
2022-10-14T08:44:34.475Z,16.34
2022-10-14T08:47:06.508Z,16.37
2022-10-14T08:49:52.718Z,16.40
2022-10-14T08:52:34.953Z,16.45
2022-10-14T08:55:18.478Z,16.53
2022-10-14T08:57:58.206Z,16.62
2022-10-14T09:00:30.021Z,16.69
2022-10-14T09:03:03.987Z,16.74
2022-10-14T09:05:34.496Z,16.81
2022-10-14T09:08:03.233Z,16.89
2022-10-14T09:10:41.312Z,16.97
2022-10-14T09:13:18.517Z,17.09
2022-10-14T09:15:55.739Z,17.21
2022-10-14T09:18:33.159Z,17.27
2022-10-14T09:21:27.851Z,17.39
2022-10-14T09:24:18.540Z,17.55
2022-10-14T09:26:54.710Z,17.67
2022-10-14T09:29:34.828Z,17.64
2022-10-14T09:32:25.393Z,17.62
2022-10-14T09:34:55.526Z,17.61
2022-10-14T09:37:33.017Z,17.55
2022-10-14T09:40:06.814Z,17.59
2022-10-14T09:42:55.928Z,17.59
2022-10-14T09:45:26.294Z,17.55
2022-10-14T09:47:56.964Z,17.55
2022-10-14T09:50:31.579Z,17.59
2022-10-14T09:53:06.054Z,17.63
2022-10-14T09:55:39.642Z,17.65
2022-10-14T09:58:17.204Z,17.74
2022-10-14T10:00:46.483Z,17.79
2022-10-14T10:03:29.255Z,17.86
2022-10-14T10:06:08.099Z,17.93
2022-10-14T10:08:41.355Z,18.13
2022-10-14T10:11:14.061Z,18.28
2022-10-14T10:13:47.012Z,18.45
2022-10-14T10:16:23.254Z,18.59
2022-10-14T10:18:55.508Z,18.65
2022-10-14T10:21:31.261Z,18.64
2022-10-14T10:24:02.735Z,18.63
2022-10-14T10:26:34.058Z,18.71
2022-10-14T10:29:05.372Z,18.75
2022-10-14T10:31:57.827Z,18.71
2022-10-14T10:35:04.411Z,18.70
2022-10-14T10:37:53.372Z,18.62
2022-10-14T10:40:42.990Z,18.53
2022-10-14T10:43:38.353Z,18.51
2022-10-14T10:46:45.537Z,18.58
2022-10-14T10:49:23.697Z,18.65
2022-10-14T10:52:17.385Z,18.70
2022-10-14T10:55:03.610Z,18.82
2022-10-14T10:57:55.488Z,18.93
2022-10-14T11:03:09.187Z,19.18
2022-10-14T11:05:43.360Z,19.16
2022-10-14T11:08:45.691Z,19.20
2022-10-14T11:11:47.867Z,19.15
2022-10-14T11:14:34.500Z,19.12
2022-10-14T11:17:12.072Z,19.06
2022-10-14T11:20:00.862Z,19.01
2022-10-14T11:23:10.415Z,18.98
2022-10-14T11:25:55.471Z,19.01
2022-10-14T11:28:43.420Z,19.01
2022-10-14T11:31:11.598Z,19.06
2022-10-14T11:34:11.535Z,19.13
2022-10-14T11:37:03.867Z,19.22
2022-10-14T11:40:02.105Z,19.30
2022-10-14T11:42:56.285Z,19.41
2022-10-14T11:45:25.137Z,19.58
2022-10-14T11:48:08.336Z,19.70
2022-10-14T11:50:42.168Z,19.79
2022-10-14T11:53:16.784Z,19.80
2022-10-14T11:56:03.272Z,19.78
2022-10-14T11:58:36.499Z,19.73
2022-10-14T12:01:12.744Z,19.67
2022-10-14T12:03:46.737Z,19.60
2022-10-14T12:06:20.304Z,19.58
2022-10-14T12:09:04.387Z,19.55
2022-10-14T12:11:59.100Z,19.54
2022-10-14T12:14:38.549Z,19.50
2022-10-14T12:17:31.916Z,19.46
2022-10-14T12:20:15.675Z,19.43
2022-10-14T12:22:49.838Z,19.44
2022-10-14T12:25:23.585Z,19.46
2022-10-14T12:27:52.955Z,19.47
2022-10-14T12:30:33.317Z,19.47
2022-10-14T12:33:11.033Z,19.43
2022-10-14T12:36:01.998Z,19.37
2022-10-14T12:38:31.673Z,19.24
2022-10-14T12:41:38.457Z,19.14
2022-10-14T12:44:14.833Z,19.00
2022-10-14T12:46:48.028Z,18.88
2022-10-14T12:49:29.163Z,18.78
2022-10-14T12:52:01.662Z,18.71
2022-10-14T12:54:32.479Z,18.68
2022-10-14T12:57:15.845Z,18.66
2022-10-14T12:59:50.830Z,18.66
2022-10-14T13:02:38.253Z,18.68
2022-10-14T13:05:10.535Z,18.64
2022-10-14T13:07:44.062Z,18.63
2022-10-14T13:10:47.228Z,18.63
2022-10-14T13:13:52.724Z,18.60
2022-10-14T13:16:21.925Z,18.56
2022-10-14T13:19:01.429Z,18.55
2022-10-14T13:21:32.537Z,18.59
2022-10-14T13:24:13.645Z,18.66
2022-10-14T13:26:52.234Z,18.72
2022-10-14T13:29:20.987Z,18.77
2022-10-14T13:32:24.684Z,18.80
2022-10-14T13:35:27.546Z,18.84
2022-10-14T13:37:58.713Z,18.87
2022-10-14T13:40:39.568Z,18.88
2022-10-14T13:43:20.512Z,18.89
2022-10-14T13:46:04.602Z,18.91
2022-10-14T13:48:40.765Z,18.91
2022-10-14T13:51:24.519Z,18.86
2022-10-14T13:54:27.291Z,18.76
2022-10-14T14:02:50.394Z,18.46
2022-10-14T14:05:35.875Z,18.34
2022-10-14T14:11:18.139Z,18.17
2022-10-14T14:14:17.517Z,18.14
2022-10-14T14:16:59.360Z,18.12
2022-10-14T14:19:27.381Z,18.11
2022-10-14T14:22:17.790Z,18.09
2022-10-14T14:24:48.675Z,18.06
2022-10-14T14:27:20.647Z,18.06
2022-10-14T14:29:51.597Z,18.08
2022-10-14T14:32:30.529Z,18.10
2022-10-14T14:35:00.960Z,18.14
2022-10-14T14:37:48.200Z,18.16
2022-10-14T14:40:24.043Z,18.14
2022-10-14T14:42:58.487Z,18.12
2022-10-14T14:45:33.080Z,18.09
2022-10-14T14:48:04.624Z,18.04
2022-10-14T14:50:37.034Z,17.95
2022-10-14T14:53:20.802Z,17.85
2022-10-14T14:55:54.943Z,17.75
2022-10-14T14:58:29.773Z,17.62
2022-10-14T15:00:58.226Z,17.42
2022-10-14T15:03:31.328Z,17.42
2022-10-14T15:06:02.940Z,17.33
2022-10-14T15:08:39.748Z,17.25
2022-10-14T15:11:09.321Z,17.18
2022-10-14T15:13:40.765Z,17.11
2022-10-14T15:16:09.236Z,17.07
2022-10-14T15:18:38.257Z,17.06
2022-10-14T15:21:13.374Z,17.05
2022-10-14T15:23:49.572Z,17.03
2022-10-14T15:26:30.900Z,16.97
2022-10-14T15:32:04.391Z,16.84
2022-10-14T15:34:43.679Z,16.75
2022-10-14T15:37:14.023Z,16.67
2022-10-14T15:39:42.235Z,16.60
2022-10-14T15:42:13.797Z,16.55
2022-10-14T15:44:42.810Z,16.47
2022-10-14T15:47:20.148Z,16.39
2022-10-14T15:49:51.483Z,16.31
2022-10-14T15:52:26.141Z,16.21
2022-10-14T15:55:00.509Z,16.13
2022-10-14T15:57:31.817Z,16.01
2022-10-14T16:00:01.769Z,15.94
2022-10-14T16:02:45.181Z,15.81
2022-10-14T16:05:20.059Z,15.69
2022-10-14T16:07:54.489Z,15.57
2022-10-14T16:10:34.423Z,15.47
2022-10-14T16:13:08.040Z,15.38
2022-10-14T16:15:49.122Z,15.30
2022-10-14T16:18:21.801Z,15.23
2022-10-14T16:20:51.972Z,15.19
2022-10-14T16:23:29.592Z,15.17
2022-10-14T16:26:04.335Z,15.18
2022-10-14T16:28:35.693Z,15.13
2022-10-14T16:31:11.763Z,15.12
2022-10-14T16:33:44.916Z,15.07
2022-10-14T16:36:17.657Z,15.01
2022-10-14T16:38:51.334Z,14.97
2022-10-14T16:41:26.027Z,14.92
2022-10-14T16:43:57.251Z,14.87
2022-10-14T16:46:48.298Z,14.83
2022-10-14T16:49:23.931Z,14.79
2022-10-14T16:51:56.015Z,14.73
2022-10-14T16:54:25.883Z,14.70
2022-10-14T16:56:54.485Z,14.67
2022-10-14T16:59:24.507Z,14.63
2022-10-14T17:01:53.095Z,14.59
2022-10-14T17:04:23.930Z,14.43
2022-10-14T17:07:02.612Z,14.48
2022-10-14T17:09:31.192Z,14.43
2022-10-14T17:12:08.113Z,14.43
2022-10-14T17:14:47.063Z,14.45
2022-10-14T17:17:23.917Z,14.46
2022-10-14T17:19:54.254Z,14.48
2022-10-14T17:22:25.617Z,14.50
2022-10-14T17:24:58.713Z,14.52
2022-10-14T17:27:28.216Z,14.52
2022-10-14T17:29:56.739Z,14.52
2022-10-14T17:32:28.420Z,14.51
2022-10-14T17:34:57.660Z,14.50
2022-10-14T17:37:29.897Z,14.49
2022-10-14T17:40:00.950Z,14.48
2022-10-14T17:42:31.608Z,14.44
2022-10-14T17:45:00.574Z,14.40
2022-10-14T17:47:32.015Z,14.36
2022-10-14T17:50:09.106Z,14.34
2022-10-14T17:52:45.123Z,14.28
2022-10-14T17:57:49.832Z,14.18
2022-10-14T18:00:20.022Z,14.11
2022-10-14T18:02:50.301Z,13.99
2022-10-14T18:05:20.643Z,14.00
2022-10-14T18:07:50.389Z,13.92
2022-10-14T18:10:19.575Z,13.91
2022-10-14T18:12:51.260Z,13.89
2022-10-14T18:15:25.747Z,13.84
2022-10-14T18:18:00.923Z,13.81
2022-10-14T18:24:01.720Z,13.75
2022-10-14T18:26:31.736Z,13.72
2022-10-14T18:29:02.660Z,13.67
2022-10-14T18:31:35.502Z,13.62
2022-10-14T18:34:04.662Z,13.59
2022-10-14T18:36:33.624Z,13.56
2022-10-14T18:39:05.381Z,13.50
2022-10-14T18:41:36.072Z,13.45
2022-10-14T18:44:06.798Z,13.40
2022-10-14T18:46:37.633Z,13.35
2022-10-14T18:49:09.110Z,13.32
2022-10-14T18:51:41.086Z,13.33
2022-10-14T18:54:20.921Z,13.26
2022-10-14T18:56:56.655Z,13.21
2022-10-14T18:59:30.222Z,13.16
2022-10-14T19:02:03.122Z,13.12
2022-10-14T19:04:35.350Z,13.07
2022-10-14T19:07:09.487Z,13.03
2022-10-14T19:09:43.583Z,13.01
2022-10-14T19:12:34.591Z,13.00
2022-10-14T19:15:07.131Z,12.98
2022-10-14T19:17:39.472Z,12.99
2022-10-14T19:20:17.140Z,12.99
2022-10-14T19:23:00.813Z,13.00
2022-10-14T19:25:33.785Z,13.00
2022-10-14T19:28:08.682Z,12.99
2022-10-14T19:30:42.708Z,12.97
2022-10-14T19:33:20.543Z,12.96
2022-10-14T19:36:02.380Z,12.95
2022-10-14T19:38:35.119Z,12.94
2022-10-14T19:41:09.821Z,12.93
2022-10-14T19:43:39.761Z,12.93
2022-10-14T19:46:12.562Z,12.92
2022-10-14T19:48:46.261Z,12.88
2022-10-14T19:51:20.029Z,12.84
2022-10-14T19:53:50.961Z,12.80
2022-10-14T19:56:21.887Z,12.76
2022-10-14T19:58:54.023Z,12.73
2022-10-14T20:01:28.018Z,12.69
2022-10-14T20:04:01.756Z,12.66
2022-10-14T20:06:36.869Z,12.62
2022-10-14T20:09:10.015Z,12.56
2022-10-14T20:11:41.466Z,12.51
2022-10-14T20:14:15.570Z,12.46
2022-10-14T20:16:47.788Z,12.37
2022-10-14T20:19:23.591Z,12.19
2022-10-14T20:21:55.145Z,12.15
2022-10-14T20:24:28.068Z,12.10
2022-10-14T20:26:58.995Z,12.06
2022-10-14T20:29:33.703Z,12.06
2022-10-14T20:32:05.309Z,12.06
2022-10-14T20:34:35.980Z,12.07
2022-10-14T20:37:06.618Z,12.06
2022-10-14T20:39:36.441Z,12.04
2022-10-14T20:42:08.145Z,12.02
2022-10-14T20:47:12.472Z,11.96
2022-10-14T20:49:43.101Z,11.91
2022-10-14T20:52:14.984Z,11.87
2022-10-14T20:54:44.533Z,11.83
2022-10-14T20:57:15.312Z,11.79
2022-10-14T20:59:45.391Z,11.77
2022-10-14T21:02:23.433Z,11.75
2022-10-14T21:04:54.594Z,11.73
2022-10-14T21:07:24.801Z,11.73
2022-10-14T21:09:53.783Z,11.75
2022-10-14T21:12:22.699Z,11.76
2022-10-14T21:14:52.043Z,11.81
2022-10-14T21:17:21.095Z,11.84
2022-10-14T21:19:50.265Z,11.87
2022-10-14T21:22:23.758Z,11.90
2022-10-14T21:24:59.007Z,11.91
2022-10-14T21:27:27.875Z,11.93
2022-10-14T21:29:57.046Z,11.94
2022-10-14T21:32:26.790Z,11.88
2022-10-14T21:35:00.053Z,11.88
2022-10-14T21:37:30.245Z,11.82
2022-10-14T21:39:59.312Z,11.77
2022-10-14T21:42:27.750Z,11.72
2022-10-14T21:44:57.114Z,11.68
2022-10-14T21:47:26.377Z,11.64
2022-10-14T21:49:55.592Z,11.60
2022-10-14T21:52:25.523Z,11.53
2022-10-14T21:54:56.517Z,11.49
2022-10-14T21:57:25.725Z,11.42
2022-10-14T21:59:54.616Z,11.36
2022-10-14T22:02:22.832Z,11.30
2022-10-14T22:04:51.346Z,11.24
2022-10-14T22:07:19.719Z,11.21
2022-10-14T22:09:47.894Z,11.18
2022-10-14T22:12:16.667Z,11.15
2022-10-14T22:14:45.068Z,11.13
2022-10-14T22:17:13.228Z,11.10
2022-10-14T22:19:41.350Z,11.09
2022-10-14T22:22:09.434Z,11.11
2022-10-14T22:24:37.614Z,11.14
2022-10-14T22:27:05.665Z,11.17
2022-10-14T22:29:33.789Z,11.20
2022-10-14T22:32:01.954Z,11.21
2022-10-14T22:34:30.736Z,11.22
2022-10-14T22:36:59.721Z,11.24
2022-10-14T22:39:27.810Z,11.26
2022-10-14T22:41:55.942Z,11.30
2022-10-14T22:44:24.368Z,11.33
2022-10-14T22:46:53.996Z,11.35
2022-10-14T22:49:23.435Z,11.35
2022-10-14T22:51:54.508Z,11.35
2022-10-14T22:54:25.927Z,11.35
2022-10-14T22:56:55.515Z,11.35
2022-10-14T22:59:24.434Z,11.37
2022-10-14T23:01:53.077Z,11.40
2022-10-14T23:04:21.808Z,11.41
2022-10-14T23:06:51.876Z,11.43
2022-10-14T23:09:20.201Z,11.45
2022-10-14T23:11:48.373Z,11.46
2022-10-14T23:14:17.435Z,11.46
2022-10-14T23:16:46.005Z,11.44
2022-10-14T23:19:15.092Z,11.45
2022-10-14T23:21:43.985Z,11.48
2022-10-14T23:24:12.660Z,11.51
2022-10-14T23:26:41.072Z,11.53
2022-10-14T23:29:12.109Z,11.55
2022-10-14T23:31:41.223Z,11.56
2022-10-14T23:34:14.279Z,11.59
2022-10-14T23:36:43.126Z,11.63
2022-10-14T23:39:11.953Z,11.65
2022-10-14T23:41:40.715Z,11.67
2022-10-14T23:44:11.121Z,11.69
2022-10-14T23:46:39.884Z,11.73
2022-10-14T23:49:24.848Z,11.78
2022-10-14T23:51:55.551Z,11.82
2022-10-14T23:54:23.833Z,11.88
2022-10-14T23:56:52.090Z,11.91
2022-10-14T23:59:20.896Z,11.96
